createdAt,value
2022-10-10T00:00:16.855Z,101237.13
2022-10-10T00:02:43.985Z,101241.66
2022-10-10T00:05:11.165Z,101231.72
2022-10-10T00:07:38.289Z,101224.72
2022-10-10T00:10:05.802Z,101229.03
2022-10-10T00:12:32.946Z,101238.00
2022-10-10T00:15:00.372Z,101229.09
2022-10-10T00:17:27.549Z,101221.56
2022-10-10T00:19:55.217Z,101230.31
2022-10-10T00:22:22.363Z,101232.03
2022-10-10T00:24:49.584Z,101223.94
2022-10-10T00:27:16.872Z,101226.56
2022-10-10T00:29:44.013Z,101231.19
2022-10-10T00:32:11.236Z,101237.13
2022-10-10T00:34:38.335Z,101232.59
2022-10-10T00:37:05.506Z,101229.25
2022-10-10T00:39:32.626Z,101236.47
2022-10-10T00:41:59.791Z,101228.22
2022-10-10T00:44:27.300Z,101234.91
2022-10-10T00:46:54.522Z,101227.59
2022-10-10T00:49:25.219Z,101228.16
2022-10-10T00:51:54.555Z,101227.91
2022-10-10T00:54:23.252Z,101232.22
2022-10-10T00:56:53.004Z,101227.03
2022-10-10T00:59:20.536Z,101229.56
2022-10-10T01:01:48.039Z,101222.56
2022-10-10T01:04:34.096Z,101218.22
2022-10-10T01:07:03.150Z,101222.34
2022-10-10T01:09:31.276Z,101208.22
2022-10-10T01:12:06.867Z,101209.81
2022-10-10T01:14:42.042Z,101204.75
2022-10-10T01:17:14.752Z,101212.69
2022-10-10T01:19:44.655Z,101205.53
2022-10-10T01:22:29.609Z,101210.78
2022-10-10T01:25:19.788Z,101205.84
2022-10-10T01:27:53.134Z,101205.78
2022-10-10T01:30:24.204Z,101196.00
2022-10-10T01:32:57.088Z,101201.09
2022-10-10T01:35:42.871Z,101189.25
2022-10-10T01:38:19.264Z,101194.19
2022-10-10T01:40:52.955Z,101190.63
2022-10-10T01:43:20.329Z,101188.88
2022-10-10T01:45:48.569Z,101193.22
2022-10-10T01:48:18.304Z,101194.91
2022-10-10T01:51:03.554Z,101187.13
2022-10-10T01:53:33.848Z,101191.56
2022-10-10T01:56:17.532Z,101191.56
2022-10-10T01:58:51.293Z,101190.22
2022-10-10T02:01:40.624Z,101193.28
2022-10-10T02:04:14.122Z,101199.50
2022-10-10T02:06:45.013Z,101193.16
2022-10-10T02:09:16.332Z,101194.56
2022-10-10T02:11:44.402Z,101196.41
2022-10-10T02:14:15.643Z,101198.69
2022-10-10T02:16:44.365Z,101195.19
2022-10-10T02:19:14.554Z,101186.97
2022-10-10T02:21:42.502Z,101191.25
2022-10-10T02:24:11.035Z,101189.91
2022-10-10T02:26:38.722Z,101189.13
2022-10-10T02:29:16.589Z,101190.28
2022-10-10T02:31:48.124Z,101186.31
2022-10-10T02:34:19.571Z,101181.72
2022-10-10T02:36:49.533Z,101181.09
2022-10-10T02:39:17.981Z,101177.75
2022-10-10T02:41:46.937Z,101176.41
2022-10-10T02:44:14.391Z,101183.34
2022-10-10T02:46:41.797Z,101180.84
2022-10-10T02:49:08.982Z,101181.63
2022-10-10T02:51:36.308Z,101186.81
2022-10-10T02:54:03.543Z,101178.34
2022-10-10T02:56:30.750Z,101176.19
2022-10-10T02:58:57.920Z,101178.03
2022-10-10T03:01:25.117Z,101179.19
2022-10-10T03:03:52.162Z,101168.50
2022-10-10T03:06:19.276Z,101179.09
2022-10-10T03:08:46.409Z,101172.53
2022-10-10T03:11:13.569Z,101180.72
2022-10-10T03:13:40.623Z,101177.63
2022-10-10T03:16:07.855Z,101175.13
2022-10-10T03:18:34.969Z,101177.66
2022-10-10T03:21:02.081Z,101177.13
2022-10-10T03:23:29.192Z,101177.13
2022-10-10T03:25:56.394Z,101177.22
2022-10-10T03:28:23.546Z,101180.59
2022-10-10T03:30:51.799Z,101179.06
2022-10-10T03:33:18.944Z,101182.88
2022-10-10T03:35:46.160Z,101178.06
2022-10-10T03:38:13.377Z,101182.50
2022-10-10T03:40:41.676Z,101186.28
2022-10-10T03:43:10.276Z,101185.28
2022-10-10T03:45:37.724Z,101180.81
2022-10-10T03:48:05.117Z,101181.25
2022-10-10T03:50:32.248Z,101175.59
2022-10-10T03:52:59.380Z,101183.22
2022-10-10T03:55:26.536Z,101175.13
2022-10-10T03:57:53.639Z,101173.03
2022-10-10T04:00:20.745Z,101166.34
2022-10-10T04:02:48.034Z,101170.47
2022-10-10T04:05:15.377Z,101171.56
2022-10-10T04:07:42.605Z,101169.53
2022-10-10T04:10:10.020Z,101167.50
2022-10-10T04:12:37.287Z,101169.53
2022-10-10T04:15:04.657Z,101164.91
2022-10-10T04:17:31.730Z,101173.03
2022-10-10T04:19:58.875Z,101171.25
2022-10-10T04:22:26.022Z,101167.63
2022-10-10T04:24:53.166Z,101168.38
2022-10-10T04:27:23.636Z,101174.34
2022-10-10T04:29:51.754Z,101171.66
2022-10-10T04:32:18.886Z,101168.78
2022-10-10T04:34:45.988Z,101170.63
2022-10-10T04:37:13.585Z,101167.28
2022-10-10T04:39:40.692Z,101169.34
2022-10-10T04:42:07.803Z,101170.13
2022-10-10T04:44:34.922Z,101172.34
2022-10-10T04:47:02.000Z,101167.13
2022-10-10T04:49:29.158Z,101163.66
2022-10-10T04:51:56.249Z,101166.25
2022-10-10T04:54:23.393Z,101157.13
2022-10-10T04:56:50.521Z,101171.28
2022-10-10T04:59:17.706Z,101167.13
2022-10-10T05:01:46.046Z,101164.13
2022-10-10T05:04:14.639Z,101160.88
2022-10-10T05:06:41.849Z,101172.81
2022-10-10T05:09:09.080Z,101168.78
2022-10-10T05:11:36.253Z,101166.09
2022-10-10T05:14:03.493Z,101165.47
2022-10-10T05:16:31.154Z,101167.75
2022-10-10T05:18:58.401Z,101161.50
2022-10-10T05:21:25.650Z,101166.63
2022-10-10T05:23:52.785Z,101162.25
2022-10-10T05:26:20.688Z,101163.34
2022-10-10T05:28:48.288Z,101159.56
2022-10-10T05:31:15.491Z,101162.47
2022-10-10T05:33:42.585Z,101170.72
2022-10-10T05:36:11.791Z,101173.72
2022-10-10T05:38:39.769Z,101184.94
2022-10-10T05:41:07.432Z,101180.00
2022-10-10T05:43:35.320Z,101185.88
2022-10-10T05:46:02.552Z,101189.44
2022-10-10T05:48:29.658Z,101197.31
2022-10-10T05:50:57.470Z,101189.69
2022-10-10T05:53:26.146Z,101192.88
2022-10-10T05:55:53.396Z,101198.47
2022-10-10T05:58:21.869Z,101199.66
2022-10-10T06:00:52.881Z,101204.38
2022-10-10T06:03:20.631Z,101206.88
2022-10-10T06:05:51.025Z,101208.59
2022-10-10T06:08:18.318Z,101203.31
2022-10-10T06:10:46.232Z,101211.22
2022-10-10T06:13:17.396Z,101214.50
2022-10-10T06:15:50.178Z,101211.50
2022-10-10T06:18:17.943Z,101214.88
2022-10-10T06:20:45.119Z,101219.47
2022-10-10T06:23:12.329Z,101223.81
2022-10-10T06:25:41.269Z,101223.31
2022-10-10T06:28:09.902Z,101231.09
2022-10-10T06:30:44.069Z,101235.75
2022-10-10T06:33:11.880Z,101241.44
2022-10-10T06:35:40.651Z,101243.31
2022-10-10T06:38:07.787Z,101240.31
2022-10-10T06:40:35.629Z,101247.78
2022-10-10T06:43:05.198Z,101244.84
2022-10-10T06:45:36.056Z,101246.41
2022-10-10T06:48:03.425Z,101249.25
2022-10-10T06:50:30.565Z,101249.13
2022-10-10T06:52:58.292Z,101250.88
2022-10-10T06:55:25.618Z,101248.50
2022-10-10T06:57:52.740Z,101246.50
2022-10-10T07:00:20.098Z,101253.72
2022-10-10T07:02:47.215Z,101255.78
2022-10-10T07:05:16.498Z,101259.34
2022-10-10T07:07:44.363Z,101252.50
2022-10-10T07:10:13.230Z,101254.66
2022-10-10T07:12:44.478Z,101257.00
2022-10-10T07:15:12.574Z,101256.69
2022-10-10T07:17:40.124Z,101261.53
2022-10-10T07:20:07.748Z,101263.91
2022-10-10T07:22:35.177Z,101261.81
2022-10-10T07:25:02.381Z,101260.16
2022-10-10T07:27:29.627Z,101267.22
2022-10-10T07:29:56.868Z,101260.59
2022-10-10T07:32:24.061Z,101269.72
2022-10-10T07:34:51.247Z,101269.03
2022-10-10T07:37:18.414Z,101263.78
2022-10-10T07:39:45.585Z,101268.72
2022-10-10T07:42:12.757Z,101285.53
2022-10-10T07:44:39.900Z,101282.41
2022-10-10T07:47:07.121Z,101281.69
2022-10-10T07:49:34.251Z,101289.25
2022-10-10T07:52:01.890Z,101280.78
2022-10-10T07:54:29.855Z,101291.56
2022-10-10T07:56:57.817Z,101297.41
2022-10-10T07:59:25.083Z,101293.00
2022-10-10T08:01:52.305Z,101292.84
2022-10-10T08:04:19.939Z,101288.84
2022-10-10T08:06:47.106Z,101292.31
2022-10-10T08:09:14.310Z,101279.97
2022-10-10T08:11:41.438Z,101282.09
2022-10-10T08:14:08.614Z,101282.38
2022-10-10T08:16:35.874Z,101287.84
2022-10-10T08:19:04.021Z,101280.31
2022-10-10T08:21:31.316Z,101281.66
2022-10-10T08:23:58.567Z,101287.97
2022-10-10T08:26:25.990Z,101279.63
2022-10-10T08:28:53.237Z,101281.88
2022-10-10T08:31:21.634Z,101279.69
2022-10-10T08:33:49.459Z,101276.69
2022-10-10T08:36:18.198Z,101269.59
2022-10-10T08:38:45.507Z,101275.75
2022-10-10T08:41:24.440Z,101281.16
2022-10-10T08:43:55.117Z,101272.78
2022-10-10T08:46:36.676Z,101272.88
2022-10-10T08:49:14.332Z,101278.53
2022-10-10T08:51:43.062Z,101266.94
2022-10-10T08:54:13.206Z,101271.31
2022-10-10T08:56:41.622Z,101273.22
2022-10-10T08:59:16.337Z,101268.88
2022-10-10T09:02:18.918Z,101264.34
2022-10-10T09:04:33.619Z,101260.19
2022-10-10T09:07:14.968Z,101254.81
2022-10-10T09:10:05.465Z,101260.94
2022-10-10T09:12:32.615Z,101256.16
2022-10-10T09:15:05.917Z,101255.69
2022-10-10T09:17:39.570Z,101256.00
2022-10-10T09:20:15.793Z,101252.97
2022-10-10T09:23:03.441Z,101251.94
2022-10-10T09:25:33.505Z,101246.88
2022-10-10T09:28:08.052Z,101254.66
2022-10-10T09:30:37.454Z,101251.09
2022-10-10T09:33:09.440Z,101252.66
2022-10-10T09:35:39.106Z,101259.75
2022-10-10T09:38:09.401Z,101258.91
2022-10-10T09:40:38.607Z,101253.78
2022-10-10T09:43:11.936Z,101264.09
2022-10-10T09:45:44.314Z,101270.63
2022-10-10T09:48:11.572Z,101264.91
2022-10-10T09:50:41.765Z,101270.31
2022-10-10T09:53:14.204Z,101266.34
2022-10-10T09:55:41.812Z,101260.13
2022-10-10T09:58:15.689Z,101270.44
2022-10-10T10:00:42.966Z,101263.06
2022-10-10T10:03:10.081Z,101265.28
2022-10-10T10:05:37.691Z,101261.72
2022-10-10T10:08:04.982Z,101263.69
2022-10-10T10:10:35.611Z,101261.13
2022-10-10T10:13:02.840Z,101261.34
2022-10-10T10:15:31.725Z,101262.63
2022-10-10T10:18:17.078Z,101264.91
2022-10-10T10:20:45.636Z,101268.88
2022-10-10T10:23:39.092Z,101266.88
2022-10-10T10:26:24.730Z,101260.66
2022-10-10T10:28:52.616Z,101255.44
2022-10-10T10:31:42.648Z,101256.22
2022-10-10T10:34:20.639Z,101264.09
2022-10-10T10:37:02.677Z,101257.03
2022-10-10T10:39:29.837Z,101258.44
2022-10-10T10:42:02.841Z,101262.94
2022-10-10T10:44:36.430Z,101262.69
2022-10-10T10:47:23.868Z,101262.38
2022-10-10T10:50:09.835Z,101265.25
2022-10-10T10:52:49.708Z,101251.69
2022-10-10T10:55:21.844Z,101247.25
2022-10-10T10:58:58.092Z,101252.81
2022-10-10T11:01:24.135Z,101241.31
2022-10-10T11:05:19.331Z,101252.25
2022-10-10T11:07:17.957Z,101242.13
2022-10-10T11:09:52.684Z,101239.19
2022-10-10T11:12:38.146Z,101243.06
2022-10-10T11:15:05.353Z,101229.53
2022-10-10T11:17:38.821Z,101237.09
2022-10-10T11:20:12.113Z,101225.66
2022-10-10T11:22:46.276Z,101225.03
2022-10-10T11:25:23.412Z,101225.88
2022-10-10T11:28:06.455Z,101222.88
2022-10-10T11:30:35.922Z,101219.97
2022-10-10T11:33:11.917Z,101214.50
2022-10-10T11:35:48.590Z,101221.34
2022-10-10T11:38:18.518Z,101216.91
2022-10-10T11:40:53.138Z,101214.41
2022-10-10T11:43:24.474Z,101211.97
2022-10-10T11:45:56.764Z,101211.56
2022-10-10T11:48:32.270Z,101204.31
2022-10-10T11:51:25.841Z,101204.16
2022-10-10T11:53:56.426Z,101195.91
2022-10-10T11:56:23.610Z,101205.38
2022-10-10T11:58:54.758Z,101196.28
2022-10-10T12:01:33.863Z,101202.69
2022-10-10T12:04:01.006Z,101182.44
2022-10-10T12:06:44.530Z,101185.47
2022-10-10T12:09:28.059Z,101176.25
2022-10-10T12:11:55.594Z,101183.41
2022-10-10T12:14:23.051Z,101179.75
2022-10-10T12:16:50.392Z,101181.88
2022-10-10T12:19:17.536Z,101179.94
2022-10-10T12:21:54.044Z,101176.94
2022-10-10T12:24:21.333Z,101171.63
2022-10-10T12:26:54.700Z,101178.59
2022-10-10T12:29:39.981Z,101167.66
2022-10-10T12:32:23.226Z,101165.63
2022-10-10T12:34:50.353Z,101166.63
2022-10-10T12:37:25.947Z,101165.53
2022-10-10T12:40:02.146Z,101162.84
2022-10-10T12:42:31.068Z,101160.78
2022-10-10T12:44:58.345Z,101156.06
2022-10-10T12:48:03.967Z,101159.53
2022-10-10T12:50:41.210Z,101158.00
2022-10-10T12:53:20.832Z,101156.63
2022-10-10T12:55:49.940Z,101152.63
2022-10-10T12:58:27.727Z,101148.34
2022-10-10T13:00:56.906Z,101154.13
2022-10-10T13:03:27.167Z,101151.19
2022-10-10T13:05:56.370Z,101155.56
2022-10-10T13:08:25.476Z,101148.41
2022-10-10T13:11:07.924Z,101146.00
2022-10-10T13:13:35.585Z,101151.41
2022-10-10T13:16:11.716Z,101153.88
2022-10-10T13:18:40.346Z,101159.03
2022-10-10T13:21:12.977Z,101157.84
2022-10-10T13:23:42.052Z,101146.72
2022-10-10T13:26:35.351Z,101146.88
2022-10-10T13:29:14.341Z,101155.22
2022-10-10T13:31:42.918Z,101148.22
2022-10-10T13:34:15.657Z,101148.34
2022-10-10T13:36:43.542Z,101152.13
2022-10-10T13:39:17.618Z,101141.28
2022-10-10T13:41:48.395Z,101149.53
2022-10-10T13:44:16.824Z,101146.06
2022-10-10T13:46:44.068Z,101147.91
2022-10-10T13:49:20.789Z,101136.16
2022-10-10T13:51:48.039Z,101141.91
2022-10-10T13:54:34.019Z,101132.78
2022-10-10T13:57:05.812Z,101139.50
2022-10-10T13:59:34.152Z,101133.88
2022-10-10T14:02:04.469Z,101134.09
2022-10-10T14:04:40.545Z,101133.00
2022-10-10T14:07:11.500Z,101133.88
2022-10-10T14:09:40.913Z,101131.06
2022-10-10T14:12:16.272Z,101134.63
2022-10-10T14:14:45.214Z,101132.78
2022-10-10T14:17:12.576Z,101136.38
2022-10-10T14:19:39.884Z,101132.03
2022-10-10T14:22:07.126Z,101129.72
2022-10-10T14:24:34.356Z,101129.72
2022-10-10T14:27:14.198Z,101128.13
2022-10-10T14:29:41.660Z,101128.25
2022-10-10T14:32:10.040Z,101127.69
2022-10-10T14:34:37.269Z,101130.47
2022-10-10T14:37:04.780Z,101127.69
2022-10-10T14:39:32.423Z,101128.44
2022-10-10T14:42:01.383Z,101131.06
2022-10-10T14:44:28.563Z,101130.28
2022-10-10T14:46:55.819Z,101132.50
2022-10-10T14:49:23.119Z,101127.25
2022-10-10T14:51:50.593Z,101124.66
2022-10-10T14:54:17.856Z,101123.03
2022-10-10T14:57:08.881Z,101123.03
2022-10-10T14:59:47.743Z,101124.13
2022-10-10T15:02:17.565Z,101122.28
2022-10-10T15:04:44.672Z,101124.19
2022-10-10T15:07:13.805Z,101124.19
2022-10-10T15:09:52.498Z,101123.31
2022-10-10T15:12:30.069Z,101123.41
2022-10-10T15:14:57.362Z,101125.38
2022-10-10T15:17:25.614Z,101130.00
2022-10-10T15:19:53.148Z,101133.78
2022-10-10T15:22:20.409Z,101131.25
2022-10-10T15:24:47.687Z,101121.38
2022-10-10T15:27:14.993Z,101127.78
2022-10-10T15:29:42.143Z,101131.34
2022-10-10T15:32:09.324Z,101128.53
2022-10-10T15:34:36.661Z,101125.06
2022-10-10T15:37:03.864Z,101124.56
2022-10-10T15:39:31.209Z,101139.09
2022-10-10T15:42:01.323Z,101133.09
2022-10-10T15:44:34.272Z,101129.84
2022-10-10T15:47:01.391Z,101128.16
2022-10-10T15:49:28.504Z,101125.47
2022-10-10T15:51:55.686Z,101125.00
2022-10-10T15:54:22.877Z,101117.84
2022-10-10T15:56:49.990Z,101126.06
2022-10-10T15:59:17.967Z,101130.69
2022-10-10T16:01:51.674Z,101129.84
2022-10-10T16:04:19.542Z,101122.69
2022-10-10T16:06:54.098Z,101133.53
2022-10-10T16:09:28.994Z,101126.47
2022-10-10T16:11:59.874Z,101131.19
2022-10-10T16:14:27.110Z,101124.25
2022-10-10T16:16:54.234Z,101120.88
2022-10-10T16:19:21.462Z,101118.34
2022-10-10T16:21:48.604Z,101124.84
2022-10-10T16:24:16.837Z,101118.94
2022-10-10T16:26:44.064Z,101130.81
2022-10-10T16:29:11.370Z,101131.91
2022-10-10T16:31:39.131Z,101140.19
2022-10-10T16:34:07.554Z,101131.50
2022-10-10T16:36:35.857Z,101131.59
2022-10-10T16:39:03.954Z,101133.63
2022-10-10T16:41:48.979Z,101133.72
2022-10-10T16:44:17.243Z,101132.94
2022-10-10T16:46:44.687Z,101134.13
2022-10-10T16:49:12.847Z,101129.84
2022-10-10T16:51:40.154Z,101131.75
2022-10-10T16:54:07.509Z,101131.84
2022-10-10T16:56:35.005Z,101138.13
2022-10-10T16:59:02.268Z,101139.09
2022-10-10T17:01:29.783Z,101136.50
2022-10-10T17:04:00.686Z,101136.75
2022-10-10T17:06:34.886Z,101147.97
2022-10-10T17:09:06.010Z,101145.28
2022-10-10T17:11:33.512Z,101147.00
2022-10-10T17:14:00.662Z,101148.75
2022-10-10T17:19:16.488Z,101159.47
2022-10-10T17:21:43.735Z,101164.00
2022-10-10T17:24:11.642Z,101172.50
2022-10-10T17:26:38.807Z,101170.25
2022-10-10T17:29:06.292Z,101171.72
2022-10-10T17:31:33.838Z,101179.94
2022-10-10T17:34:01.169Z,101170.78
2022-10-10T17:36:28.578Z,101170.47
2022-10-10T17:39:02.087Z,101170.94
2022-10-10T17:41:29.402Z,101168.41
2022-10-10T17:43:56.675Z,101175.94
2022-10-10T17:46:41.501Z,101177.94
2022-10-10T17:49:09.731Z,101178.09
2022-10-10T17:51:37.965Z,101178.63
2022-10-10T17:54:06.467Z,101177.00
2022-10-10T17:56:33.889Z,101182.41
2022-10-10T17:59:01.963Z,101185.44
2022-10-10T18:01:36.522Z,101181.97
2022-10-10T18:04:04.466Z,101186.66
2022-10-10T18:06:32.956Z,101184.69
2022-10-10T18:09:00.736Z,101177.25
2022-10-10T18:11:29.431Z,101189.91
2022-10-10T18:14:00.530Z,101188.59
2022-10-10T18:16:29.814Z,101184.25
2022-10-10T18:18:58.220Z,101192.34
2022-10-10T18:21:25.377Z,101187.91
2022-10-10T18:23:52.607Z,101184.66
2022-10-10T18:26:26.796Z,101195.88
2022-10-10T18:28:55.561Z,101181.78
2022-10-10T18:31:24.697Z,101180.91
2022-10-10T18:33:52.142Z,101178.81
2022-10-10T18:36:20.533Z,101183.63
2022-10-10T18:38:47.645Z,101174.19
2022-10-10T18:41:19.204Z,101176.13
2022-10-10T18:43:46.607Z,101182.53
2022-10-10T18:46:15.917Z,101184.84
2022-10-10T18:48:43.635Z,101181.59
2022-10-10T18:51:15.140Z,101177.25
2022-10-10T18:53:43.621Z,101188.97
2022-10-10T18:56:14.171Z,101186.47
2022-10-10T18:58:41.383Z,101188.75
2022-10-10T19:01:12.801Z,101187.09
2022-10-10T19:03:40.984Z,101185.41
2022-10-10T19:06:09.452Z,101190.38
2022-10-10T19:08:37.012Z,101192.28
2022-10-10T19:11:05.133Z,101187.75
2022-10-10T19:13:33.148Z,101187.22
2022-10-10T19:16:07.103Z,101192.88
2022-10-10T19:18:34.779Z,101190.84
2022-10-10T19:21:03.299Z,101191.63
2022-10-10T19:23:31.393Z,101196.94
2022-10-10T19:26:03.398Z,101202.78
2022-10-10T19:28:31.309Z,101202.59
2022-10-10T19:31:02.648Z,101199.34
2022-10-10T19:33:30.119Z,101199.66
2022-10-10T19:35:59.052Z,101204.50
2022-10-10T19:38:26.783Z,101213.06
2022-10-10T19:40:54.087Z,101207.75
2022-10-10T19:43:21.458Z,101212.78
2022-10-10T19:45:51.395Z,101217.03
2022-10-10T19:48:19.626Z,101213.53
2022-10-10T19:50:47.374Z,101216.44
2022-10-10T19:53:17.371Z,101217.84
2022-10-10T19:55:46.069Z,101217.97
2022-10-10T19:58:13.219Z,101213.81
2022-10-10T20:00:41.163Z,101209.97
2022-10-10T20:03:08.402Z,101222.25
2022-10-10T20:05:35.603Z,101230.06
2022-10-10T20:08:02.878Z,101233.84
2022-10-10T20:10:30.229Z,101239.91
2022-10-10T20:12:57.575Z,101235.09
2022-10-10T20:15:24.969Z,101228.44
2022-10-10T20:17:52.115Z,101234.88
2022-10-10T20:20:19.529Z,101242.06
2022-10-10T20:22:46.774Z,101240.03
2022-10-10T20:25:14.098Z,101245.88
2022-10-10T20:27:42.311Z,101240.06
2022-10-10T20:30:09.693Z,101242.81
2022-10-10T20:32:37.337Z,101242.97
2022-10-10T20:35:04.714Z,101245.78
2022-10-10T20:37:33.701Z,101243.09
2022-10-10T20:40:00.945Z,101244.91
2022-10-10T20:42:28.154Z,101244.72
2022-10-10T20:44:55.397Z,101250.19
2022-10-10T20:47:23.461Z,101250.19
2022-10-10T20:49:51.412Z,101254.78
2022-10-10T20:52:18.594Z,101243.22
2022-10-10T20:54:45.853Z,101242.78
2022-10-10T20:57:13.075Z,101253.72
2022-10-10T20:59:40.255Z,101256.13
2022-10-10T21:02:08.941Z,101261.16
2022-10-10T21:04:36.199Z,101261.28
2022-10-10T21:07:03.487Z,101261.53
2022-10-10T21:09:32.350Z,101265.16
2022-10-10T21:11:59.631Z,101258.25
2022-10-10T21:14:26.914Z,101252.13
2022-10-10T21:16:54.538Z,101247.69
2022-10-10T21:19:21.861Z,101257.66
2022-10-10T21:21:49.129Z,101255.78
2022-10-10T21:24:16.394Z,101259.34
2022-10-10T21:26:43.613Z,101266.03
2022-10-10T21:29:13.800Z,101259.34
2022-10-10T21:31:41.028Z,101259.63
2022-10-10T21:34:11.102Z,101258.06
2022-10-10T21:36:38.425Z,101256.56
2022-10-10T21:39:09.202Z,101259.47
2022-10-10T21:41:36.793Z,101261.44
2022-10-10T21:44:04.056Z,101263.25
2022-10-10T21:46:36.288Z,101261.06
2022-10-10T21:49:07.785Z,101272.31
2022-10-10T21:51:37.879Z,101258.19
2022-10-10T21:54:05.687Z,101264.03
2022-10-10T21:56:33.875Z,101260.78
2022-10-10T21:59:01.775Z,101262.28
2022-10-10T22:01:32.965Z,101254.47
2022-10-10T22:04:01.928Z,101260.25
2022-10-10T22:06:29.509Z,101254.94
2022-10-10T22:08:58.201Z,101248.97
2022-10-10T22:11:26.446Z,101249.16
2022-10-10T22:13:53.698Z,101246.41
2022-10-10T22:16:22.724Z,101248.13
2022-10-10T22:18:52.762Z,101251.59
2022-10-10T22:21:19.869Z,101257.84
2022-10-10T22:23:49.683Z,101249.34
2022-10-10T22:26:17.235Z,101252.22
2022-10-10T22:28:45.145Z,101258.72
2022-10-10T22:31:13.790Z,101254.28
2022-10-10T22:33:41.333Z,101259.28
2022-10-10T22:36:09.014Z,101255.16
2022-10-10T22:38:40.437Z,101254.28
2022-10-10T22:41:08.181Z,101257.78
2022-10-10T22:43:35.400Z,101255.09
2022-10-10T22:46:03.556Z,101258.91
2022-10-10T22:48:30.908Z,101250.91
2022-10-10T22:50:59.584Z,101252.72
2022-10-10T22:53:27.145Z,101250.97
2022-10-10T22:55:54.527Z,101257.44
2022-10-10T22:58:21.713Z,101256.34
2022-10-10T23:00:48.900Z,101251.06
2022-10-10T23:03:17.061Z,101250.28
2022-10-10T23:05:44.869Z,101250.63
2022-10-10T23:08:12.101Z,101249.88
2022-10-10T23:10:39.358Z,101242.81
2022-10-10T23:13:06.491Z,101240.00
2022-10-10T23:15:33.699Z,101239.47
2022-10-10T23:18:01.002Z,101243.22
2022-10-10T23:20:28.296Z,101243.41
2022-10-10T23:22:55.537Z,101247.78
2022-10-10T23:25:22.754Z,101245.16
2022-10-10T23:27:49.946Z,101242.53
2022-10-10T23:30:30.613Z,101245.34
2022-10-10T23:32:58.011Z,101245.47
2022-10-10T23:35:38.780Z,101248.22
2022-10-10T23:38:20.026Z,101242.09
2022-10-10T23:40:59.969Z,101247.72
2022-10-10T23:43:41.428Z,101250.50
2022-10-10T23:46:22.876Z,101248.78
2022-10-10T23:49:04.286Z,101250.00
2022-10-10T23:51:45.594Z,101258.16
2022-10-10T23:54:27.073Z,101253.63
2022-10-10T23:57:08.538Z,101248.34
2022-10-10T23:59:49.865Z,101252.09
